首页
METAR-TAF:

METAR-TAF

机场 :

Sachs Harbour, 西北特區, 加拿大

纬度: 72-00N, 经度: 125-17W, 海拔: 86米

当前天气观测

该预报发布于26分钟前的21:00 UTC
风速11节,风向东转东南
温度 1°C
湿度 75%
气压 1027 hPa
能見度: 24.1公里
阴天层高于1700英尺

METAR: CYSY 062100Z 12011KT 15SM OVC017 01/M03 A3034 RMK SC8 SLP285

时间: 15:26 (21:26 UTC)

预报

该预报发布于2小时和48分钟前的18:38 UTC
预报有效从06日的 19点(UTC)到 06日的 23点(UTC)
风速10节,风向
能見度: 10公里
阴天层高于2500英尺
短暂存在
从 06日的 19点(UTC)到 06日的 23点(UTC)
能見度: 8.0公里
阴天层高于2000英尺
小雪

TAF: CYSY 061838Z 0619/0623 10010KT P6SM OVC025 TEMPO 0619/0623 5SM -SN OVC020 RMK NXT FCST WILL BE ISSUED AT 071445Z

超过4000个机场的气象观测和天气预报(METAR&TAF报告)。

可查询的气象台以黄色和红色小点在地图上表示。

将鼠标移到小点上方,可查看气象台名称。

然后点击查看天气观测和预报。

如需切换地图:点击带黑十字的绿色按钮放大地图;点击带横线的绿色按钮缩小地图;或者点击绿色箭头查看邻近地区的地图。


METAR-TAF: